Time;durP1;ratioP1;P1;durP2;ratioP2;P2;SDS_P1;SDS_P2;PMS_P1;PMS_P2;Temp;Humidity;BMP_temperature;BMP_pressure;BME280_temperature;BME280_humidity;BME280_pressure;Samples;Min_cycle;Max_cycle;Signal;HPM_P1;HPM_P2
2021/09/19 00:02:03;;;;;;;19.40;18.10;;;13.60;99.90;;;;;;4982928;28;20984;-72
2021/09/19 00:04:31;;;;;;;20.23;18.20;;;13.60;99.90;;;;;;4984501;28;20470;-73
2021/09/19 00:06:57;;;;;;;20.07;18.77;;;13.60;99.90;;;;;;4983389;28;20554;-72
2021/09/19 00:09:24;;;;;;;20.07;18.87;;;13.60;99.90;;;;;;4976491;28;20488;-72
2021/09/19 00:11:52;;;;;;;20.20;18.73;;;13.60;99.90;;;;;;4982063;28;20824;-72
2021/09/19 00:14:19;;;;;;;19.87;18.67;;;13.50;99.90;;;;;;4973459;28;20479;-72
2021/09/19 00:16:48;;;;;;;19.90;18.70;;;13.50;99.90;;;;;;4992450;28;20929;-72
2021/09/19 00:19:17;;;;;;;21.07;19.63;;;13.50;99.90;;;;;;4986885;28;20462;-72
2021/09/19 00:21:44;;;;;;;19.90;18.60;;;13.60;99.90;;;;;;4974067;28;20461;-72
2021/09/19 00:24:11;;;;;;;19.23;17.83;;;13.60;99.90;;;;;;4979204;28;20469;-72
2021/09/19 00:26:38;;;;;;;19.17;17.97;;;13.60;99.90;;;;;;4986175;28;20822;-71
2021/09/19 00:29:05;;;;;;;19.70;18.30;;;13.60;99.90;;;;;;4980990;28;20473;-72
2021/09/19 00:31:32;;;;;;;18.87;17.60;;;13.60;99.90;;;;;;4983382;28;20482;-72
2021/09/19 00:33:59;;;;;;;19.63;18.27;;;13.50;99.90;;;;;;4986417;28;20985;-69
2021/09/19 00:36:28;;;;;;;20.30;18.90;;;13.50;99.90;;;;;;4982072;28;20850;-69
2021/09/19 00:38:54;;;;;;;20.73;18.57;;;13.50;99.90;;;;;;4983992;28;20463;-70
2021/09/19 00:41:22;;;;;;;19.93;18.73;;;13.50;99.90;;;;;;4976864;28;20766;-69
2021/09/19 00:43:48;;;;;;;19.70;18.50;;;13.60;99.90;;;;;;4983169;28;20470;-69
2021/09/19 00:46:16;;;;;;;19.80;18.50;;;13.50;99.90;;;;;;4983097;28;20462;-69
2021/09/19 00:48:44;;;;;;;19.93;18.50;;;13.50;99.90;;;;;;4980598;28;20468;-69
2021/09/19 00:51:13;;;;;;;19.03;17.60;;;13.50;99.90;;;;;;4982133;28;20465;-69
2021/09/19 00:53:42;;;;;;;18.97;17.57;;;13.60;99.90;;;;;;4982543;28;20469;-69
2021/09/19 00:56:10;;;;;;;19.53;18.33;;;13.70;99.90;;;;;;4971783;28;20479;-69
2021/09/19 00:58:42;;;;;;;20.30;18.47;;;13.60;99.90;;;;;;4991337;28;20544;-69
2021/09/19 01:01:10;;;;;;;20.23;18.93;;;13.50;99.90;;;;;;4983970;28;20482;-69
2021/09/19 01:03:38;;;;;;;18.47;17.37;;;13.40;99.90;;;;;;4979923;28;20461;-70
2021/09/19 01:06:06;;;;;;;19.27;18.07;;;13.40;99.90;;;;;;4981040;28;20561;-69
2021/09/19 01:08:33;;;;;;;19.13;17.63;;;13.40;99.90;;;;;;4974868;28;20465;-69
2021/09/19 01:11:01;;;;;;;18.57;17.47;;;13.30;99.90;;;;;;4982429;28;20992;-69
2021/09/19 01:13:29;;;;;;;20.33;19.13;;;13.30;99.90;;;;;;4977595;28;20550;-69
2021/09/19 01:15:57;;;;;;;20.33;18.83;;;13.30;99.90;;;;;;4983205;28;20501;-70
2021/09/19 01:18:25;;;;;;;19.47;18.10;;;13.20;99.90;;;;;;4977573;28;20467;-70
2021/09/19 01:20:53;;;;;;;20.13;18.97;;;13.20;99.90;;;;;;4976337;28;20469;-69
2021/09/19 01:23:20;;;;;;;20.10;18.50;;;13.30;99.90;;;;;;4984289;28;20459;-70
2021/09/19 01:25:51;;;;;;;19.73;18.43;;;13.30;99.90;;;;;;4977670;28;20893;-68
2021/09/19 01:28:18;;;;;;;18.90;17.80;;;13.30;99.90;;;;;;4982127;28;20546;-70
2021/09/19 01:30:45;;;;;;;18.30;17.30;;;13.20;99.90;;;;;;4980334;28;20465;-69
2021/09/19 01:33:12;;;;;;;20.17;18.87;;;13.20;99.90;;;;;;4976009;28;20797;-71
2021/09/19 01:35:40;;;;;;;20.17;18.87;;;13.10;99.90;;;;;;4987492;28;20981;-69
2021/09/19 01:38:07;;;;;;;20.50;19.20;;;13.10;99.90;;;;;;4978415;28;20487;-69
2021/09/19 01:40:34;;;;;;;21.07;19.87;;;13.00;99.90;;;;;;4973755;28;20800;-69
2021/09/19 01:43:03;;;;;;;20.23;19.13;;;13.00;99.90;;;;;;4977335;28;20459;-69
2021/09/19 01:45:31;;;;;;;20.27;19.07;;;12.90;99.90;;;;;;4980910;28;20528;-69
2021/09/19 01:47:59;;;;;;;20.43;18.77;;;12.90;99.90;;;;;;4978813;28;20461;-69
2021/09/19 01:50:28;;;;;;;20.83;19.50;;;12.90;99.90;;;;;;4980291;28;20470;-69
2021/09/19 01:52:56;;;;;;;19.07;17.67;;;13.00;99.90;;;;;;4979853;28;20457;-69
2021/09/19 01:55:23;;;;;;;19.70;18.40;;;13.10;99.90;;;;;;4978283;28;20546;-71
2021/09/19 01:57:51;;;;;;;19.00;17.90;;;13.00;99.90;;;;;;4980401;28;20494;-72
2021/09/19 02:00:19;;;;;;;17.87;16.90;;;13.00;99.90;;;;;;4984552;28;20487;-72
2021/09/19 02:02:47;;;;;;;19.40;17.90;;;13.00;99.90;;;;;;4982353;28;20533;-71
2021/09/19 02:05:14;;;;;;;18.00;17.00;;;13.00;99.90;;;;;;4976298;28;20474;-72
2021/09/19 02:07:41;;;;;;;19.40;18.20;;;13.00;99.90;;;;;;4984445;28;20464;-71
2021/09/19 02:10:11;;;;;;;19.47;18.13;;;13.00;99.90;;;;;;4983569;28;20482;-69
2021/09/19 02:12:39;;;;;;;18.17;16.97;;;13.00;99.90;;;;;;4981474;28;20460;-70
2021/09/19 02:15:08;;;;;;;19.63;18.10;;;13.10;99.90;;;;;;4985308;28;20565;-70
2021/09/19 02:17:37;;;;;;;18.80;17.60;;;13.10;99.90;;;;;;4980519;28;20871;-69
2021/09/19 02:20:07;;;;;;;18.33;17.00;;;13.10;99.90;;;;;;4976522;28;20495;-69
2021/09/19 02:22:34;;;;;;;18.33;16.83;;;13.10;99.90;;;;;;4977201;28;20827;-69
2021/09/19 02:25:01;;;;;;;19.00;17.40;;;13.00;99.90;;;;;;4986754;28;20463;-69
2021/09/19 02:27:27;;;;;;;18.37;17.17;;;13.00;99.90;;;;;;4977931;28;20467;-69
2021/09/19 02:29:54;;;;;;;20.00;18.60;;;13.00;99.90;;;;;;4976848;28;20655;-69
2021/09/19 02:32:22;;;;;;;19.07;17.87;;;12.90;99.90;;;;;;4972991;28;20586;-69
2021/09/19 02:34:51;;;;;;;20.33;19.13;;;12.90;99.90;;;;;;4978832;28;20483;-69
2021/09/19 02:37:18;;;;;;;19.27;18.17;;;12.80;99.90;;;;;;4980036;28;20502;-70
2021/09/19 02:39:46;;;;;;;18.77;17.70;;;12.80;99.90;;;;;;4984630;28;20830;-69
2021/09/19 02:42:13;;;;;;;20.30;19.00;;;12.80;99.90;;;;;;4975165;28;20460;-69
2021/09/19 02:44:40;;;;;;;18.30;17.10;;;12.80;99.90;;;;;;4978713;28;20464;-70
2021/09/19 02:47:08;;;;;;;18.47;17.47;;;12.80;99.90;;;;;;4974619;28;20470;-70
2021/09/19 02:49:35;;;;;;;19.00;17.80;;;12.80;99.90;;;;;;4976520;28;20525;-69
2021/09/19 02:52:04;;;;;;;18.40;17.30;;;12.80;99.90;;;;;;4974403;28;20469;-70
2021/09/19 02:54:31;;;;;;;18.87;17.27;;;12.90;99.90;;;;;;4987329;28;20475;-69
2021/09/19 02:56:59;;;;;;;18.70;17.47;;;12.90;99.90;;;;;;4988641;28;20980;-69
2021/09/19 02:59:26;;;;;;;19.67;18.47;;;12.80;99.90;;;;;;4980229;28;20474;-69
2021/09/19 03:01:53;;;;;;;17.90;16.80;;;12.70;99.90;;;;;;4983041;28;20497;-69
2021/09/19 03:04:20;;;;;;;18.70;17.40;;;12.70;99.90;;;;;;4981091;28;21041;-69
2021/09/19 03:06:47;;;;;;;18.77;17.57;;;12.90;99.90;;;;;;4987759;28;20466;-70
2021/09/19 03:09:15;;;;;;;19.27;17.70;;;12.90;99.90;;;;;;4989712;28;20841;-71
2021/09/19 03:11:42;;;;;;;19.47;18.17;;;12.80;99.90;;;;;;4988692;28;20464;-70
2021/09/19 03:14:10;;;;;;;18.97;17.40;;;12.70;99.90;;;;;;4978345;28;20806;-70
2021/09/19 03:16:36;;;;;;;19.40;18.20;;;12.60;99.90;;;;;;4977975;28;20473;-70
2021/09/19 03:19:04;;;;;;;18.10;17.13;;;12.60;99.90;;;;;;4977878;28;20458;-70
2021/09/19 03:21:32;;;;;;;19.07;17.70;;;12.60;99.90;;;;;;4984144;28;20465;-69
2021/09/19 03:23:59;;;;;;;17.73;16.73;;;12.70;99.90;;;;;;4988934;28;21316;-69
2021/09/19 03:26:27;;;;;;;17.50;16.50;;;12.70;99.90;;;;;;4988484;28;20472;-69
2021/09/19 03:28:54;;;;;;;17.77;16.67;;;12.80;99.90;;;;;;4978386;28;20866;-71
2021/09/19 03:31:21;;;;;;;17.47;16.30;;;12.90;99.90;;;;;;4986070;28;20560;-68
2021/09/19 03:33:48;;;;;;;18.37;16.90;;;12.90;99.90;;;;;;4973550;28;20487;-69
2021/09/19 03:36:15;;;;;;;19.13;17.50;;;12.80;99.90;;;;;;4987888;28;20939;-69
2021/09/19 03:38:42;;;;;;;18.70;17.50;;;12.80;99.90;;;;;;4980327;28;21060;-70
2021/09/19 03:41:09;;;;;;;17.80;16.67;;;12.70;99.90;;;;;;4984438;28;20458;-69
2021/09/19 03:43:39;;;;;;;18.07;16.87;;;12.70;99.90;;;;;;4981686;28;20942;-69
2021/09/19 03:46:06;;;;;;;17.83;16.93;;;12.70;99.90;;;;;;4972025;28;20462;-69
2021/09/19 03:48:33;;;;;;;18.47;17.40;;;12.70;99.90;;;;;;4990354;28;20474;-69
2021/09/19 03:51:02;;;;;;;18.60;17.40;;;12.70;99.90;;;;;;4986006;28;20983;-69
2021/09/19 03:53:29;;;;;;;19.43;17.90;;;12.60;99.90;;;;;;4978116;28;20644;-70
2021/09/19 03:55:56;;;;;;;18.60;17.20;;;12.70;99.90;;;;;;4983569;28;20482;-69
2021/09/19 03:58:23;;;;;;;19.17;17.97;;;12.60;99.90;;;;;;4980976;28;20487;-70
2021/09/19 04:00:52;;;;;;;18.20;17.17;;;12.70;99.90;;;;;;4981487;28;20455;-69
2021/09/19 04:03:19;;;;;;;18.90;17.80;;;12.60;99.90;;;;;;4983338;28;20504;-69
2021/09/19 04:05:46;;;;;;;18.47;17.47;;;12.60;99.90;;;;;;4976604;28;20463;-69
2021/09/19 04:08:13;;;;;;;18.03;17.03;;;12.60;99.90;;;;;;4975246;28;20961;-70
2021/09/19 04:10:40;;;;;;;19.23;17.70;;;12.70;99.90;;;;;;4972825;28;20483;-68
2021/09/19 04:13:07;;;;;;;18.77;17.67;;;12.60;99.90;;;;;;4980677;28;21044;-69
2021/09/19 04:15:34;;;;;;;18.13;16.90;;;12.60;99.90;;;;;;4975752;28;20903;-69
2021/09/19 04:18:02;;;;;;;19.30;17.90;;;12.60;99.90;;;;;;4982432;28;20489;-69
2021/09/19 04:20:30;;;;;;;18.13;17.13;;;12.60;99.90;;;;;;4975778;28;21189;-69
2021/09/19 04:22:57;;;;;;;19.20;18.10;;;12.60;99.90;;;;;;4986013;28;20465;-68
2021/09/19 04:25:24;;;;;;;17.97;16.97;;;12.60;99.90;;;;;;4977518;28;20466;-69
2021/09/19 04:27:52;;;;;;;18.90;17.40;;;12.50;99.90;;;;;;4989043;28;21013;-69
2021/09/19 04:30:19;;;;;;;18.50;17.40;;;12.50;99.90;;;;;;4981142;28;20842;-70
2021/09/19 04:32:46;;;;;;;20.27;17.70;;;12.40;99.90;;;;;;4976708;28;20465;-70
2021/09/19 04:35:14;;;;;;;18.30;17.30;;;12.40;99.90;;;;;;4976534;28;20518;-69
2021/09/19 04:37:42;;;;;;;19.03;17.83;;;12.40;99.90;;;;;;4978549;28;21019;-69
2021/09/19 04:40:10;;;;;;;18.80;17.50;;;12.40;99.90;;;;;;4972017;28;20467;-69
2021/09/19 04:42:40;;;;;;;19.50;18.30;;;12.40;99.90;;;;;;4981380;28;20466;-69
2021/09/19 04:45:09;;;;;;;18.97;17.80;;;12.30;99.90;;;;;;4975550;28;20468;-68
2021/09/19 04:47:36;;;;;;;20.10;18.80;;;12.30;99.90;;;;;;4981465;28;20465;-69
2021/09/19 04:50:04;;;;;;;18.80;17.70;;;12.20;99.90;;;;;;4983156;28;20459;-70
2021/09/19 04:52:32;;;;;;;19.20;17.73;;;12.30;99.90;;;;;;4978679;28;20568;-69
2021/09/19 04:54:59;;;;;;;19.63;18.30;;;12.20;99.90;;;;;;4981396;28;20560;-69
2021/09/19 04:57:26;;;;;;;19.63;18.43;;;12.20;99.90;;;;;;4988305;28;20867;-69
2021/09/19 04:59:53;;;;;;;18.43;17.33;;;12.10;99.90;;;;;;4986412;28;20451;-70
2021/09/19 05:02:20;;;;;;;18.47;17.37;;;12.10;99.90;;;;;;4979471;28;20470;-69
2021/09/19 05:04:47;;;;;;;18.67;17.67;;;12.10;99.90;;;;;;4978593;28;20451;-69
2021/09/19 05:07:14;;;;;;;18.33;17.23;;;12.00;99.90;;;;;;4982982;28;20473;-69
2021/09/19 05:09:43;;;;;;;19.90;18.80;;;11.90;99.90;;;;;;4979733;28;20485;-69
2021/09/19 05:12:10;;;;;;;19.80;18.60;;;11.90;99.90;;;;;;4984624;28;20462;-70
2021/09/19 05:14:37;;;;;;;18.93;17.73;;;11.90;99.90;;;;;;4988892;28;20470;-69
2021/09/19 05:17:04;;;;;;;18.20;17.17;;;11.90;99.90;;;;;;4981903;28;20461;-68
2021/09/19 05:19:31;;;;;;;18.10;17.00;;;12.00;99.90;;;;;;4979732;28;20706;-68
2021/09/19 05:21:59;;;;;;;18.30;17.17;;;12.00;99.90;;;;;;4981395;28;20908;-69
2021/09/19 05:24:26;;;;;;;17.60;16.60;;;12.00;99.90;;;;;;4978772;28;20476;-68
2021/09/19 05:26:54;;;;;;;18.00;16.90;;;12.00;99.90;;;;;;4993290;28;21071;-69
2021/09/19 05:29:21;;;;;;;18.87;17.67;;;12.00;99.90;;;;;;4985255;28;20512;-68
2021/09/19 05:31:48;;;;;;;18.90;17.90;;;12.10;99.90;;;;;;4977036;28;20466;-70
2021/09/19 05:34:15;;;;;;;18.43;17.23;;;12.00;99.90;;;;;;4969932;28;20491;-71
2021/09/19 05:36:42;;;;;;;17.97;16.87;;;12.10;99.90;;;;;;4978587;28;20553;-72
2021/09/19 05:39:09;;;;;;;18.07;17.07;;;12.10;99.90;;;;;;4980714;28;20497;-73
2021/09/19 05:41:37;;;;;;;18.13;17.10;;;12.10;99.90;;;;;;4978770;28;20467;-71
2021/09/19 05:44:07;;;;;;;17.87;16.83;;;12.10;99.90;;;;;;4975208;28;20470;-71
2021/09/19 05:46:33;;;;;;;18.13;16.90;;;12.20;99.90;;;;;;4969220;28;20896;-71
2021/09/19 05:49:00;;;;;;;17.30;15.93;;;12.20;99.90;;;;;;4979378;28;20461;-71
2021/09/19 05:51:27;;;;;;;18.00;17.00;;;12.20;99.90;;;;;;4987351;28;20466;-71
2021/09/19 05:53:55;;;;;;;17.80;16.70;;;12.20;99.90;;;;;;4975397;28;20790;-72
2021/09/19 05:56:21;;;;;;;19.03;17.60;;;12.30;99.90;;;;;;4979479;28;20573;-72
2021/09/19 05:58:49;;;;;;;18.23;17.13;;;12.30;99.90;;;;;;4980032;28;20498;-72
2021/09/19 06:01:17;;;;;;;18.17;16.97;;;12.30;99.90;;;;;;4977693;28;20500;-71
2021/09/19 06:03:44;;;;;;;20.17;18.43;;;12.40;99.90;;;;;;4989320;28;20557;-71
2021/09/19 06:06:11;;;;;;;18.30;17.20;;;12.40;99.90;;;;;;4985238;28;20466;-71
2021/09/19 06:08:38;;;;;;;19.13;17.67;;;12.40;99.90;;;;;;4980518;28;20471;-71
2021/09/19 06:11:05;;;;;;;19.90;18.70;;;12.50;99.90;;;;;;4978493;28;20481;-71
2021/09/19 06:13:32;;;;;;;19.00;17.90;;;12.60;99.90;;;;;;4986723;28;20490;-72
2021/09/19 06:16:00;;;;;;;18.57;17.43;;;12.60;99.90;;;;;;4982782;28;20460;-71
2021/09/19 06:18:30;;;;;;;19.40;18.20;;;12.60;99.90;;;;;;4981773;28;20483;-71
2021/09/19 06:20:57;;;;;;;19.70;18.40;;;12.70;99.90;;;;;;4981579;28;20462;-72
2021/09/19 06:23:24;;;;;;;19.83;18.43;;;12.70;99.90;;;;;;4977357;28;20495;-72
2021/09/19 06:25:52;;;;;;;19.23;18.03;;;12.70;99.90;;;;;;4986068;28;20477;-71
2021/09/19 06:28:19;;;;;;;19.13;17.90;;;12.90;99.90;;;;;;4990088;28;20541;-73
2021/09/19 06:30:46;;;;;;;20.53;19.20;;;13.00;99.90;;;;;;4982710;28;20541;-71
2021/09/19 06:33:14;;;;;;;19.30;18.10;;;13.10;99.90;;;;;;4978652;28;20478;-72
2021/09/19 06:35:43;;;;;;;19.77;18.57;;;13.20;99.90;;;;;;4983367;28;20481;-71
2021/09/19 06:38:10;;;;;;;20.07;18.77;;;13.30;99.90;;;;;;4983416;28;20784;-71
2021/09/19 06:40:38;;;;;;;21.30;19.90;;;13.40;99.90;;;;;;4981706;28;20455;-72
2021/09/19 06:43:05;;;;;;;21.67;20.10;;;13.50;99.90;;;;;;4977866;28;20947;-72
2021/09/19 06:45:32;;;;;;;22.13;20.50;;;13.60;99.90;;;;;;4985386;28;20457;-72
2021/09/19 06:47:59;;;;;;;20.70;19.10;;;13.70;99.90;;;;;;4978771;28;20481;-72
2021/09/19 06:50:26;;;;;;;22.40;21.00;;;13.90;99.90;;;;;;4987081;28;20481;-72
2021/09/19 06:52:54;;;;;;;21.47;19.77;;;14.00;99.90;;;;;;4972022;28;20462;-72
2021/09/19 06:55:22;;;;;;;22.37;20.27;;;14.20;99.90;;;;;;4984510;28;20467;-71
2021/09/19 06:57:55;;;;;;;23.57;21.50;;;14.30;99.90;;;;;;4983894;28;20470;-71
2021/09/19 07:00:22;;;;;;;20.20;18.90;;;14.40;99.90;;;;;;4985771;28;20850;-73
2021/09/19 07:02:49;;;;;;;21.90;20.30;;;14.50;99.90;;;;;;4977273;28;20472;-71
2021/09/19 07:05:15;;;;;;;20.87;19.47;;;14.60;99.90;;;;;;4980278;28;20463;-71
2021/09/19 07:07:42;;;;;;;19.90;18.70;;;14.70;99.90;;;;;;4980779;28;20472;-71
2021/09/19 07:10:12;;;;;;;21.10;19.50;;;14.80;99.90;;;;;;4978652;28;20483;-72
2021/09/19 07:12:39;;;;;;;18.93;17.47;;;14.90;99.90;;;;;;4978642;28;20486;-71
2021/09/19 07:15:08;;;;;;;19.77;18.20;;;15.00;99.90;;;;;;4983226;28;20485;-71
2021/09/19 07:17:36;;;;;;;19.70;18.10;;;15.10;99.90;;;;;;4975056;28;20470;-71
2021/09/19 07:20:03;;;;;;;19.33;18.03;;;15.30;99.90;;;;;;4975380;28;20525;-71
2021/09/19 07:22:31;;;;;;;18.37;17.23;;;15.50;99.90;;;;;;4985899;28;20840;-71
2021/09/19 07:24:58;;;;;;;18.03;16.93;;;15.60;99.90;;;;;;4991257;28;20580;-72
2021/09/19 07:27:29;;;;;;;18.00;16.80;;;15.70;99.90;;;;;;4981557;28;20764;-73
2021/09/19 07:29:56;;;;;;;17.33;16.03;;;15.80;99.90;;;;;;4976638;28;20467;-72
2021/09/19 07:32:24;;;;;;;18.17;16.63;;;15.90;99.90;;;;;;4984667;28;20463;-71
2021/09/19 07:34:51;;;;;;;17.17;16.17;;;15.90;99.90;;;;;;4977717;28;20486;-70
2021/09/19 07:37:21;;;;;;;19.57;16.83;;;16.00;99.90;;;;;;4991749;28;20570;-69
2021/09/19 07:39:48;;;;;;;15.90;15.00;;;16.10;99.90;;;;;;4986578;28;20486;-70
2021/09/19 07:42:16;;;;;;;16.73;15.80;;;16.20;99.90;;;;;;4984918;28;20462;-70
2021/09/19 07:44:45;;;;;;;16.93;15.53;;;16.30;99.90;;;;;;4976813;28;20826;-70
2021/09/19 07:47:13;;;;;;;16.13;15.23;;;16.40;99.90;;;;;;4983177;28;20463;-70
2021/09/19 07:49:41;;;;;;;16.50;15.40;;;16.60;99.90;;;;;;4978302;28;20463;-70
2021/09/19 07:52:09;;;;;;;17.57;16.37;;;16.60;99.90;;;;;;4979491;28;20469;-71
2021/09/19 07:54:37;;;;;;;16.10;14.87;;;16.70;99.90;;;;;;4980108;28;20455;-71
2021/09/19 07:57:04;;;;;;;16.93;15.73;;;16.70;99.90;;;;;;4974308;28;20505;-71
2021/09/19 07:59:31;;;;;;;15.87;14.87;;;16.80;99.90;;;;;;4977407;28;20504;-70
2021/09/19 08:01:59;;;;;;;16.77;15.53;;;16.80;99.90;;;;;;4977809;28;20466;-70
2021/09/19 08:04:26;;;;;;;17.50;16.40;;;17.00;99.90;;;;;;4974658;28;20655;-71
2021/09/19 08:06:53;;;;;;;15.87;15.03;;;17.00;99.90;;;;;;4987632;28;20463;-70
2021/09/19 08:09:21;;;;;;;18.23;16.77;;;17.20;99.90;;;;;;4975262;28;20494;-72
2021/09/19 08:11:48;;;;;;;15.47;14.67;;;17.20;99.90;;;;;;4981004;28;20455;-71
2021/09/19 08:14:14;;;;;;;17.57;16.43;;;17.10;99.90;;;;;;4980029;28;20737;-72
2021/09/19 08:16:42;;;;;;;16.27;15.27;;;17.20;99.90;;;;;;4984499;28;20455;-71
2021/09/19 08:19:11;;;;;;;17.60;16.30;;;17.20;99.90;;;;;;4977856;28;20487;-71
2021/09/19 08:21:38;;;;;;;16.87;15.87;;;17.10;99.90;;;;;;4980753;28;20462;-70
2021/09/19 08:24:07;;;;;;;17.27;16.27;;;17.30;99.90;;;;;;4990807;28;20462;-72
2021/09/19 08:26:34;;;;;;;22.63;16.67;;;17.50;99.90;;;;;;4978479;28;20815;-70
2021/09/19 08:29:01;;;;;;;16.67;15.77;;;17.60;99.90;;;;;;4980803;28;20470;-71
2021/09/19 08:31:28;;;;;;;17.07;15.93;;;17.80;99.90;;;;;;4984311;28;20976;-70
2021/09/19 08:33:57;;;;;;;16.90;15.90;;;17.90;99.90;;;;;;4979437;28;20460;-70
2021/09/19 08:36:26;;;;;;;17.57;16.27;;;18.00;99.90;;;;;;4985516;28;20470;-70
2021/09/19 08:38:54;;;;;;;17.37;16.13;;;17.90;99.90;;;;;;4987810;28;20522;-71
2021/09/19 08:41:22;;;;;;;17.20;16.00;;;17.90;99.90;;;;;;4983987;28;20461;-71
2021/09/19 08:43:50;;;;;;;16.90;15.93;;;17.80;99.90;;;;;;4978007;28;20466;-71
2021/09/19 08:46:18;;;;;;;17.17;15.97;;;17.80;99.90;;;;;;4976269;28;20471;-70
2021/09/19 08:48:46;;;;;;;17.17;16.00;;;18.00;99.90;;;;;;4970409;28;20470;-72
2021/09/19 08:51:14;;;;;;;16.70;15.70;;;18.30;99.90;;;;;;4990722;28;20473;-70
2021/09/19 08:53:42;;;;;;;17.20;16.20;;;18.50;99.90;;;;;;4973809;28;20471;-71
2021/09/19 08:56:10;;;;;;;17.13;16.10;;;18.70;99.90;;;;;;4973165;28;20477;-72
2021/09/19 08:58:38;;;;;;;16.27;15.27;;;18.60;99.90;;;;;;4973831;28;20463;-70
2021/09/19 09:01:06;;;;;;;15.67;14.87;;;18.50;99.90;;;;;;4974888;28;20500;-70
2021/09/19 09:03:34;;;;;;;16.30;15.20;;;18.60;99.90;;;;;;4978570;28;20467;-71
2021/09/19 09:06:02;;;;;;;16.20;15.20;;;18.70;99.90;;;;;;4975357;28;20911;-72
2021/09/19 09:08:31;;;;;;;16.80;15.90;;;19.00;99.90;;;;;;4974559;28;20475;-73
2021/09/19 09:11:01;;;;;;;17.23;16.23;;;19.00;99.90;;;;;;4982345;28;20479;-72
2021/09/19 09:13:31;;;;;;;15.90;15.00;;;19.20;99.90;;;;;;4980698;28;20821;-71
2021/09/19 09:16:05;;;;;;;15.47;14.27;;;19.30;99.90;;;;;;4979553;28;20462;-70
2021/09/19 09:18:34;;;;;;;15.37;14.47;;;19.50;99.90;;;;;;4980724;28;20557;-72
2021/09/19 09:21:04;;;;;;;16.30;15.50;;;19.50;99.90;;;;;;4979882;28;20486;-71
2021/09/19 09:23:34;;;;;;;15.90;14.60;;;19.70;99.90;;;;;;4980111;28;20981;-72
2021/09/19 09:26:16;;;;;;;15.33;14.33;;;19.80;99.90;;;;;;4978633;28;20463;-72
2021/09/19 09:28:45;;;;;;;14.20;13.50;;;20.40;99.90;;;;;;4986913;28;20815;-70
2021/09/19 09:31:13;;;;;;;14.30;13.60;;;21.10;99.90;;;;;;4983340;28;20460;-72
2021/09/19 09:33:55;;;;;;;15.00;14.00;;;22.10;99.90;;;;;;4976608;28;20503;-73
2021/09/19 09:36:38;;;;;;;14.40;13.57;;;22.50;99.90;;;;;;4965662;28;21589;-73
2021/09/19 09:39:27;;;;;;;14.07;13.43;;;22.50;99.90;;;;;;4979665;28;20565;-71
2021/09/19 09:41:59;;;;;;;14.63;13.33;;;22.60;99.90;;;;;;4987623;28;20505;-73
2021/09/19 09:44:35;;;;;;;14.17;13.43;;;22.80;99.90;;;;;;4981995;28;20463;-72
2021/09/19 09:47:05;;;;;;;14.30;13.60;;;23.20;99.90;;;;;;4980791;28;20468;-72
2021/09/19 09:49:38;;;;;;;13.67;13.07;;;23.90;99.90;;;;;;4977296;28;20854;-72
2021/09/19 09:52:08;;;;;;;13.37;12.77;;;24.10;99.90;;;;;;4979923;28;20961;-73
2021/09/19 09:54:42;;;;;;;12.77;12.20;;;24.10;99.90;;;;;;4983649;28;20887;-71
2021/09/19 09:57:13;;;;;;;13.77;12.97;;;24.50;99.90;;;;;;4983268;28;20466;-71
2021/09/19 09:59:44;;;;;;;13.20;12.50;;;24.90;99.90;;;;;;4980719;28;20490;-72
2021/09/19 10:02:14;;;;;;;13.60;12.90;;;25.30;99.90;;;;;;4978828;28;20533;-72
2021/09/19 10:04:43;;;;;;;13.33;12.63;;;24.70;99.90;;;;;;4981056;28;20465;-72
2021/09/19 10:07:11;;;;;;;13.43;12.73;;;24.50;99.90;;;;;;4979330;28;20829;-71
2021/09/19 10:09:42;;;;;;;13.30;12.50;;;24.40;99.90;;;;;;4991040;28;20485;-71
2021/09/19 10:12:12;;;;;;;13.90;13.10;;;24.50;99.90;;;;;;4988405;28;20954;-72
2021/09/19 10:14:39;;;;;;;13.33;12.67;;;24.80;99.90;;;;;;4981799;28;20460;-71
2021/09/19 10:17:07;;;;;;;13.30;12.60;;;24.80;99.90;;;;;;4980436;28;20582;-71
2021/09/19 10:19:34;;;;;;;13.90;13.00;;;25.10;99.90;;;;;;4987908;28;20496;-71
2021/09/19 10:22:02;;;;;;;13.23;12.63;;;24.70;99.90;;;;;;4986632;28;20470;-72
2021/09/19 10:24:37;;;;;;;13.33;12.30;;;25.00;99.90;;;;;;4987774;28;20466;-72
2021/09/19 10:27:22;;;;;;;13.20;12.60;;;25.10;99.90;;;;;;4984585;28;20487;-72
2021/09/19 10:29:49;;;;;;;12.70;12.13;;;25.70;99.90;;;;;;4984138;28;20462;-72
2021/09/19 10:32:37;;;;;;;13.60;12.70;;;26.10;99.90;;;;;;4984354;28;20831;-72
2021/09/19 10:35:14;;;;;;;13.43;12.60;;;26.60;99.90;;;;;;4979667;28;20482;-72
2021/09/19 10:37:53;;;;;;;14.27;13.13;;;27.50;99.90;;;;;;4973992;28;20892;-71
2021/09/19 10:40:35;;;;;;;13.50;12.67;;;26.90;99.90;;;;;;4984389;28;20560;-74
2021/09/19 10:43:09;;;;;;;13.50;12.90;;;26.50;99.90;;;;;;4986916;28;20467;-71
2021/09/19 10:45:38;;;;;;;12.80;12.30;;;26.40;99.90;;;;;;4978005;28;21328;-72
2021/09/19 10:48:16;;;;;;;12.60;12.00;;;25.80;99.90;;;;;;4982041;28;20779;-71
2021/09/19 10:50:44;;;;;;;13.17;12.57;;;25.60;99.90;;;;;;4985913;28;20569;-71
2021/09/19 10:53:26;;;;;;;13.53;12.83;;;25.60;99.90;;;;;;4984235;28;20565;-74
2021/09/19 10:55:57;;;;;;;13.60;12.73;;;25.40;99.90;;;;;;4980173;28;20454;-72
2021/09/19 10:58:29;;;;;;;13.83;12.47;;;25.40;99.90;;;;;;4980608;28;20462;-72
2021/09/19 11:01:10;;;;;;;13.37;12.63;;;26.10;99.90;;;;;;4981344;28;20497;-72
2021/09/19 11:03:38;;;;;;;13.90;13.10;;;27.20;99.90;;;;;;4977562;28;20463;-72
2021/09/19 11:06:05;;;;;;;13.70;12.90;;;27.50;98.40;;;;;;4983473;28;20458;-71
2021/09/19 11:08:41;;;;;;;13.40;12.70;;;27.60;98.10;;;;;;4973781;28;20509;-72
2021/09/19 11:11:20;;;;;;;12.63;12.10;;;28.00;97.90;;;;;;4988102;28;20561;-72
2021/09/19 11:13:55;;;;;;;12.90;12.17;;;28.00;97.50;;;;;;4982045;28;20497;-72
2021/09/19 11:16:41;;;;;;;13.90;13.00;;;28.10;97.20;;;;;;4982260;28;20459;-72
2021/09/19 11:19:11;;;;;;;13.27;12.50;;;28.10;95.80;;;;;;4984345;28;20458;-73
2021/09/19 11:21:44;;;;;;;13.87;13.17;;;27.80;97.00;;;;;;4991817;28;20460;-72
2021/09/19 11:24:13;;;;;;;13.37;12.77;;;26.70;96.70;;;;;;4983700;28;20543;-73
2021/09/19 11:26:43;;;;;;;14.23;13.23;;;26.10;98.50;;;;;;4985857;28;20466;-74
2021/09/19 11:29:14;;;;;;;12.93;12.40;;;26.10;98.60;;;;;;4981671;28;20474;-74
2021/09/19 11:31:44;;;;;;;13.07;12.47;;;26.10;98.50;;;;;;4982614;28;20458;-72
2021/09/19 11:34:13;;;;;;;41.87;13.00;;;26.10;98.60;;;;;;4976979;28;20514;-71
2021/09/19 11:36:43;;;;;;;12.70;12.20;;;25.90;98.10;;;;;;4978890;28;20811;-74
2021/09/19 11:39:11;;;;;;;13.17;12.57;;;25.60;98.30;;;;;;4992516;28;20495;-72
2021/09/19 11:41:40;;;;;;;13.30;12.70;;;25.50;99.20;;;;;;4990341;28;20458;-71
2021/09/19 11:44:07;;;;;;;12.47;11.97;;;25.30;99.40;;;;;;4985900;28;20458;-72
2021/09/19 11:46:35;;;;;;;12.77;12.23;;;25.10;98.80;;;;;;4983143;28;20452;-70
2021/09/19 11:49:05;;;;;;;12.90;12.30;;;25.30;98.40;;;;;;4978763;28;21405;-71
2021/09/19 11:51:33;;;;;;;13.03;12.30;;;25.30;99.00;;;;;;4978337;28;20462;-72
2021/09/19 11:54:00;;;;;;;13.30;12.70;;;25.00;99.10;;;;;;4987000;28;20463;-72
2021/09/19 11:56:30;;;;;;;13.30;12.60;;;25.00;99.40;;;;;;4984915;28;20469;-71
2021/09/19 11:58:57;;;;;;;13.00;12.47;;;25.30;98.60;;;;;;4990401;28;20929;-72
2021/09/19 12:01:26;;;;;;;12.80;12.30;;;25.40;98.70;;;;;;4984117;28;20486;-71
2021/09/19 12:04:03;;;;;;;13.97;13.23;;;25.50;98.90;;;;;;4986994;28;20458;-71
2021/09/19 12:06:31;;;;;;;12.50;11.90;;;26.00;98.10;;;;;;4981772;28;20504;-74
2021/09/19 12:09:00;;;;;;;12.80;12.20;;;25.70;98.10;;;;;;4976585;28;20960;-72
2021/09/19 12:11:39;;;;;;;12.40;11.80;;;25.40;98.40;;;;;;4986981;28;20885;-71
2021/09/19 12:14:18;;;;;;;12.27;11.77;;;25.20;99.80;;;;;;4993629;28;20462;-72
2021/09/19 12:16:58;;;;;;;12.00;11.50;;;25.50;99.20;;;;;;4990778;28;20533;-71
2021/09/19 12:19:26;;;;;;;12.10;11.60;;;25.70;99.40;;;;;;4983136;28;20958;-73
2021/09/19 12:21:59;;;;;;;12.30;11.70;;;25.40;99.40;;;;;;4984759;28;20454;-73
2021/09/19 12:24:28;;;;;;;12.63;12.03;;;25.10;99.10;;;;;;4982299;28;20525;-73
2021/09/19 12:27:11;;;;;;;12.67;12.07;;;25.20;99.70;;;;;;4986027;28;20550;-72
2021/09/19 12:29:38;;;;;;;11.67;11.17;;;25.00;99.60;;;;;;4989286;28;20454;-71
2021/09/19 12:32:06;;;;;;;12.73;12.10;;;25.60;99.90;;;;;;4978358;28;20485;-71
2021/09/19 12:34:34;;;;;;;12.43;11.93;;;26.80;97.90;;;;;;4974910;28;20496;-72
2021/09/19 12:37:03;;;;;;;13.50;12.90;;;27.60;96.70;;;;;;4971835;28;20463;-73